Time;durP1;ratioP1;P1;durP2;ratioP2;P2;SDS_P1;SDS_P2;PMS_P1;PMS_P2;Temp;Humidity;BMP_temperature;BMP_pressure;BME280_temperature;BME280_humidity;BME280_pressure;Samples;Min_cycle;Max_cycle;Signal;HPM_P1;HPM_P2
2022/05/18 00:02:19;;;;;;;21.50;5.63;;;;;;;;;;5094645;28;20442;-74
2022/05/18 00:04:46;;;;;;;16.00;5.43;;;;;;;;;;5094908;28;20485;-73
2022/05/18 00:07:14;;;;;;;16.70;5.50;;;;;;;;;;5094575;28;20529;-74
2022/05/18 00:09:41;;;;;;;18.30;7.20;;;;;;;;;;5094394;28;20442;-74
2022/05/18 00:12:11;;;;;;;19.33;6.27;;;;;;;;;;5094908;28;20450;-74
2022/05/18 00:14:39;;;;;;;19.57;5.93;;;;;;;;;;5094620;28;20472;-73
2022/05/18 00:17:07;;;;;;;18.90;7.33;;;;;;;;;;5094225;28;20466;-74
2022/05/18 00:19:34;;;;;;;17.30;5.90;;;;;;;;;;5094684;28;20426;-74
2022/05/18 00:22:02;;;;;;;19.60;6.70;;;;;;;;;;5094224;28;20438;-74
2022/05/18 00:24:29;;;;;;;17.00;6.40;;;;;;;;;;5094084;28;20489;-74
2022/05/18 00:26:57;;;;;;;19.20;6.30;;;;;;;;;;5094148;28;20437;-74
2022/05/18 00:29:26;;;;;;;20.90;7.77;;;;;;;;;;5093978;28;20493;-73
2022/05/18 00:31:53;;;;;;;19.47;7.10;;;;;;;;;;5094077;28;20446;-73
2022/05/18 00:34:21;;;;;;;20.67;6.80;;;;;;;;;;5094129;28;20446;-74
2022/05/18 00:36:48;;;;;;;20.30;7.20;;;;;;;;;;5093878;28;20439;-73
2022/05/18 00:39:16;;;;;;;26.30;9.27;;;;;;;;;;5093706;28;20437;-74
2022/05/18 00:41:43;;;;;;;18.23;7.37;;;;;;;;;;5094137;28;20442;-74
2022/05/18 00:44:11;;;;;;;19.97;7.60;;;;;;;;;;5093416;28;20478;-74
2022/05/18 00:46:40;;;;;;;19.77;7.73;;;;;;;;;;5093947;28;20450;-73
2022/05/18 00:49:08;;;;;;;19.70;8.90;;;;;;;;;;5093746;28;20446;-74
2022/05/18 00:51:39;;;;;;;20.43;7.10;;;;;;;;;;5093572;28;20442;-74
2022/05/18 00:54:08;;;;;;;19.50;7.30;;;;;;;;;;5093751;28;20452;-73
2022/05/18 00:56:39;;;;;;;22.80;8.27;;;;;;;;;;5093575;28;21089;-73
2022/05/18 00:59:08;;;;;;;19.60;7.03;;;;;;;;;;5093649;28;20453;-73
2022/05/18 01:01:35;;;;;;;24.20;8.63;;;;;;;;;;5093383;28;20442;-74
2022/05/18 01:04:08;;;;;;;18.17;7.60;;;;;;;;;;5093372;28;20482;-73
2022/05/18 01:06:37;;;;;;;16.70;6.50;;;;;;;;;;5094100;28;20900;-73
2022/05/18 01:09:05;;;;;;;19.03;7.30;;;;;;;;;;5093429;28;20441;-74
2022/05/18 01:11:33;;;;;;;25.23;8.80;;;;;;;;;;5093091;28;20943;-74
2022/05/18 01:14:01;;;;;;;18.27;7.50;;;;;;;;;;5093343;28;20947;-74
2022/05/18 01:16:28;;;;;;;22.37;8.50;;;;;;;;;;5093260;28;20453;-73
2022/05/18 01:18:56;;;;;;;19.20;7.53;;;;;;;;;;5093492;28;20478;-73
2022/05/18 01:21:28;;;;;;;20.60;7.90;;;;;;;;;;5093257;28;20434;-74
2022/05/18 01:23:59;;;;;;;17.67;7.33;;;;;;;;;;5093030;28;20818;-73
2022/05/18 01:26:44;;;;;;;18.83;7.77;;;;;;;;;;5093074;28;20473;-73
2022/05/18 01:29:13;;;;;;;19.07;7.33;;;;;;;;;;5092683;28;20974;-73
2022/05/18 01:31:45;;;;;;;20.00;7.80;;;;;;;;;;5093012;28;20445;-73
2022/05/18 01:34:13;;;;;;;17.73;7.10;;;;;;;;;;5093500;28;20540;-73
2022/05/18 01:36:41;;;;;;;18.83;8.07;;;;;;;;;;5092976;28;20449;-74
2022/05/18 01:39:10;;;;;;;22.53;8.07;;;;;;;;;;5092875;28;20453;-74
2022/05/18 01:41:42;;;;;;;19.20;7.33;;;;;;;;;;5092678;28;20438;-73
2022/05/18 01:44:09;;;;;;;17.87;7.00;;;;;;;;;;5092679;28;20442;-73
2022/05/18 01:46:38;;;;;;;20.83;8.33;;;;;;;;;;5093198;28;20446;-73
2022/05/18 01:49:06;;;;;;;21.00;8.47;;;;;;;;;;5092826;28;20442;-74
2022/05/18 01:51:35;;;;;;;19.40;7.87;;;;;;;;;;5092540;28;20434;-74
2022/05/18 01:54:04;;;;;;;18.93;7.10;;;;;;;;;;5092721;28;20437;-74
2022/05/18 01:56:31;;;;;;;19.07;6.87;;;;;;;;;;5091686;28;20438;-73
2022/05/18 01:58:59;;;;;;;27.33;8.23;;;;;;;;;;5092873;28;20809;-73
2022/05/18 02:01:27;;;;;;;18.97;7.97;;;;;;;;;;5092320;28;20453;-73
2022/05/18 02:03:56;;;;;;;21.97;8.80;;;;;;;;;;5092523;28;20522;-74
2022/05/18 02:06:23;;;;;;;21.50;8.23;;;;;;;;;;5092221;28;20477;-73
2022/05/18 02:08:50;;;;;;;21.07;7.67;;;;;;;;;;5092299;28;20434;-74
2022/05/18 02:11:20;;;;;;;22.83;7.40;;;;;;;;;;5092353;28;20446;-74
2022/05/18 02:13:48;;;;;;;20.50;8.57;;;;;;;;;;5092246;28;20435;-73
2022/05/18 02:16:16;;;;;;;20.43;7.77;;;;;;;;;;5092093;28;20446;-73
2022/05/18 02:18:43;;;;;;;19.03;7.63;;;;;;;;;;5092129;28;20473;-74
2022/05/18 02:21:13;;;;;;;19.77;8.67;;;;;;;;;;5092038;28;20533;-73
2022/05/18 02:23:41;;;;;;;22.80;8.70;;;;;;;;;;5092717;28;20438;-74
2022/05/18 02:26:09;;;;;;;21.17;8.00;;;;;;;;;;5091960;28;20490;-73
2022/05/18 02:28:37;;;;;;;22.20;8.50;;;;;;;;;;5092229;28;20625;-73
2022/05/18 02:31:04;;;;;;;20.10;7.80;;;;;;;;;;5091794;28;20464;-74
2022/05/18 02:33:32;;;;;;;19.33;8.50;;;;;;;;;;5091872;28;20433;-73
2022/05/18 02:35:59;;;;;;;21.60;8.80;;;;;;;;;;5092182;28;20441;-73
2022/05/18 02:38:28;;;;;;;20.10;7.90;;;;;;;;;;5092305;28;20959;-73
2022/05/18 02:40:58;;;;;;;32.30;8.87;;;;;;;;;;5091901;28;20434;-73
2022/05/18 02:43:25;;;;;;;19.90;7.90;;;;;;;;;;5091714;28;20433;-73
2022/05/18 02:46:01;;;;;;;21.13;8.37;;;;;;;;;;5091915;28;20488;-74
2022/05/18 02:48:29;;;;;;;23.87;8.00;;;;;;;;;;5091895;28;20441;-73
2022/05/18 02:50:56;;;;;;;20.60;8.00;;;;;;;;;;5091823;28;20445;-73
2022/05/18 02:53:24;;;;;;;21.00;8.77;;;;;;;;;;5091937;28;20457;-74
2022/05/18 02:56:07;;;;;;;17.93;7.83;;;;;;;;;;5091698;28;20461;-74
2022/05/18 02:58:35;;;;;;;24.57;8.23;;;;;;;;;;5091781;28;20457;-73
2022/05/18 03:01:05;;;;;;;21.80;8.60;;;;;;;;;;5091910;28;20433;-73
2022/05/18 03:03:32;;;;;;;19.43;8.13;;;;;;;;;;5091513;28;20434;-74
2022/05/18 03:06:00;;;;;;;19.37;8.30;;;;;;;;;;5092069;28;20513;-74
2022/05/18 03:08:28;;;;;;;21.97;9.10;;;;;;;;;;5094705;28;20441;-74
2022/05/18 03:10:56;;;;;;;20.87;8.20;;;;;;;;;;5095622;28;20438;-74
2022/05/18 03:13:24;;;;;;;18.60;8.53;;;;;;;;;;5095631;28;20439;-74
2022/05/18 03:15:51;;;;;;;19.97;8.60;;;;;;;;;;5096318;28;20438;-74
2022/05/18 03:18:20;;;;;;;20.73;8.47;;;;;;;;;;5095461;28;20473;-74
2022/05/18 03:23:36;;;;;;;17.83;7.10;;;;;;;;;;5095582;28;20416;-74
2022/05/18 03:26:06;;;;;;;25.50;8.63;;;;;;;;;;5095366;28;20477;-74
2022/05/18 03:28:34;;;;;;;23.63;7.50;;;;;;;;;;5095319;28;20525;-74
2022/05/18 03:31:01;;;;;;;26.53;8.70;;;;;;;;;;5095033;28;20453;-73
2022/05/18 03:33:30;;;;;;;19.00;8.50;;;;;;;;;;5095138;28;20807;-74
2022/05/18 03:35:57;;;;;;;21.90;9.00;;;;;;;;;;5095391;28;20935;-74
2022/05/18 03:38:25;;;;;;;18.53;8.10;;;;;;;;;;5095926;28;20438;-74
2022/05/18 03:40:52;;;;;;;19.27;7.97;;;;;;;;;;5095315;28;20465;-74
2022/05/18 03:43:21;;;;;;;22.10;8.97;;;;;;;;;;5095056;28;20449;-74
2022/05/18 03:45:49;;;;;;;20.63;8.70;;;;;;;;;;5094919;28;20859;-73
2022/05/18 03:48:17;;;;;;;19.60;8.27;;;;;;;;;;5095044;28;20452;-74
2022/05/18 03:50:47;;;;;;;16.43;6.70;;;;;;;;;;5094958;28;20449;-74
2022/05/18 03:53:15;;;;;;;19.47;7.70;;;;;;;;;;5094961;28;20525;-74
2022/05/18 03:55:43;;;;;;;18.10;7.37;;;;;;;;;;5094995;28;20453;-74
2022/05/18 03:58:12;;;;;;;18.67;7.60;;;;;;;;;;5094915;28;20442;-73
2022/05/18 04:00:41;;;;;;;32.23;3.13;;;;;;;;;;5094778;28;20835;-73
2022/05/18 04:03:09;;;;;;;12.03;1.80;;;;;;;;;;5094650;28;20444;-73
2022/05/18 04:05:38;;;;;;;13.27;1.40;;;;;;;;;;5094340;28;20477;-72
2022/05/18 04:08:07;;;;;;;13.07;1.43;;;;;;;;;;5095017;28;20435;-72
2022/05/18 04:10:34;;;;;;;11.03;1.30;;;;;;;;;;5094505;28;20449;-72
2022/05/18 04:13:02;;;;;;;11.77;1.57;;;;;;;;;;5094484;28;20970;-74
2022/05/18 04:15:30;;;;;;;11.10;1.57;;;;;;;;;;5094250;28;20456;-71
2022/05/18 04:17:59;;;;;;;13.20;2.40;;;;;;;;;;5094291;28;20476;-73
2022/05/18 04:20:27;;;;;;;11.00;1.83;;;;;;;;;;5093564;28;20436;-72
2022/05/18 04:22:55;;;;;;;13.40;2.20;;;;;;;;;;5094373;28;20447;-73
2022/05/18 04:25:25;;;;;;;12.97;1.97;;;;;;;;;;5094312;28;20479;-73
2022/05/18 04:27:52;;;;;;;11.43;2.40;;;;;;;;;;5094249;28;20451;-73
2022/05/18 04:30:20;;;;;;;10.83;1.93;;;;;;;;;;5093730;28;20467;-73
2022/05/18 04:32:48;;;;;;;12.20;2.57;;;;;;;;;;5094296;28;20449;-74
2022/05/18 04:35:19;;;;;;;12.20;2.00;;;;;;;;;;5094158;28;20430;-74
2022/05/18 04:37:46;;;;;;;11.23;2.50;;;;;;;;;;5094493;28;20796;-73
2022/05/18 04:40:14;;;;;;;13.63;2.17;;;;;;;;;;5093992;28;20449;-74
2022/05/18 04:42:41;;;;;;;11.50;2.30;;;;;;;;;;5093994;28;20454;-73
2022/05/18 04:45:11;;;;;;;10.80;2.10;;;;;;;;;;5093675;28;21037;-74
2022/05/18 04:47:38;;;;;;;11.83;2.40;;;;;;;;;;5093805;28;20441;-74
2022/05/18 04:50:07;;;;;;;11.30;2.60;;;;;;;;;;5093766;28;20452;-74
2022/05/18 04:52:35;;;;;;;10.53;1.87;;;;;;;;;;5093732;28;20449;-74
2022/05/18 04:55:03;;;;;;;11.53;1.90;;;;;;;;;;5093605;28;20448;-74
2022/05/18 04:57:30;;;;;;;11.57;1.90;;;;;;;;;;5093365;28;20497;-75
2022/05/18 04:59:59;;;;;;;9.80;1.60;;;;;;;;;;5093580;28;20198;-74
2022/05/18 05:02:27;;;;;;;11.43;1.70;;;;;;;;;;5093409;28;20444;-74
2022/05/18 05:04:54;;;;;;;11.30;2.27;;;;;;;;;;5093487;28;20436;-74
2022/05/18 05:07:22;;;;;;;12.83;2.50;;;;;;;;;;5093150;28;20968;-74
2022/05/18 05:09:51;;;;;;;12.00;2.50;;;;;;;;;;5093362;28;20446;-74
2022/05/18 05:12:20;;;;;;;12.80;3.10;;;;;;;;;;5093441;28;20199;-74
2022/05/18 05:14:48;;;;;;;13.03;2.40;;;;;;;;;;5093563;28;20202;-74
2022/05/18 05:17:16;;;;;;;12.13;2.60;;;;;;;;;;5093225;28;20832;-75
2022/05/18 05:19:43;;;;;;;10.30;1.73;;;;;;;;;;5093351;28;20448;-75
2022/05/18 05:22:11;;;;;;;11.00;2.20;;;;;;;;;;5093065;28;20817;-74
2022/05/18 05:24:38;;;;;;;12.30;2.63;;;;;;;;;;5093132;28;20954;-74
2022/05/18 05:27:08;;;;;;;10.57;2.15;;;;;;;;;;5092998;28;20229;-74
2022/05/18 05:29:35;;;;;;;12.15;2.15;;;;;;;;;;5092375;28;20723;-74
2022/05/18 05:32:06;;;;;;;11.00;2.08;;;;;;;;;;5092931;28;20197;-74
2022/05/18 05:34:34;;;;;;;11.80;2.33;;;;;;;;;;5093220;28;20200;-74
2022/05/18 05:37:02;;;;;;;11.18;1.80;;;;;;;;;;5092922;28;20206;-73
2022/05/18 05:39:29;;;;;;;10.25;1.77;;;;;;;;;;5092829;28;20210;-73
2022/05/18 05:41:56;;;;;;;11.90;2.33;;;;;;;;;;5092829;28;20655;-74
2022/05/18 05:44:25;;;;;;;10.30;1.55;;;;;;;;;;5092793;28;20441;-73
2022/05/18 05:46:53;;;;;;;12.02;2.15;;;;;;;;;;5092668;28;20708;-74
2022/05/18 05:49:20;;;;;;;10.40;1.80;;;;;;;;;;5092342;28;20200;-74
2022/05/18 05:51:48;;;;;;;12.93;1.80;;;;;;;;;;5092650;28;20207;-74
2022/05/18 05:54:16;;;;;;;10.63;1.83;;;;;;;;;;5092780;28;20232;-74
2022/05/18 05:56:43;;;;;;;10.95;1.83;;;;;;;;;;5092790;28;20204;-74
2022/05/18 05:59:10;;;;;;;10.10;1.58;;;;;;;;;;5092804;28;20245;-74
2022/05/18 06:01:39;;;;;;;17.80;2.10;;;;;;;;;;5092191;28;20285;-73
2022/05/18 06:04:07;;;;;;;11.88;2.25;;;;;;;;;;5092333;28;20196;-74
2022/05/18 06:06:37;;;;;;;11.10;2.00;;;;;;;;;;5092346;28;20228;-73
2022/05/18 06:09:07;;;;;;;10.05;1.40;;;;;;;;;;5092511;28;20198;-74
2022/05/18 06:11:36;;;;;;;10.48;1.67;;;;;;;;;;5092217;28;20687;-74
2022/05/18 06:14:03;;;;;;;11.50;2.30;;;;;;;;;;5092225;28;20196;-73
2022/05/18 06:16:31;;;;;;;11.88;2.15;;;;;;;;;;5092275;28;20203;-74
2022/05/18 06:19:01;;;;;;;11.75;2.10;;;;;;;;;;5092221;28;20650;-74
2022/05/18 06:21:28;;;;;;;11.95;2.00;;;;;;;;;;5092172;28;20202;-74
2022/05/18 06:23:56;;;;;;;12.10;2.20;;;;;;;;;;5092365;28;20203;-74
2022/05/18 06:26:26;;;;;;;10.82;1.90;;;;;;;;;;5092049;28;20224;-74
2022/05/18 06:28:53;;;;;;;11.07;1.85;;;;;;;;;;5092034;28;20196;-74
2022/05/18 06:31:21;;;;;;;11.45;1.90;;;;;;;;;;5091668;28;20289;-74
2022/05/18 06:33:48;;;;;;;11.57;1.60;;;;;;;;;;5092021;28;20597;-73
2022/05/18 06:36:17;;;;;;;12.82;2.15;;;;;;;;;;5092265;28;20210;-73
2022/05/18 06:38:45;;;;;;;11.60;2.10;;;;;;;;;;5092027;28;20196;-74
2022/05/18 06:41:25;;;;;;;16.23;2.20;;;;;;;;;;5092267;28;20200;-74
2022/05/18 06:43:54;;;;;;;11.00;1.85;;;;;;;;;;5091790;28;20195;-74
2022/05/18 06:46:22;;;;;;;12.80;2.10;;;;;;;;;;5091708;28;20224;-74
2022/05/18 06:48:50;;;;;;;11.18;1.77;;;;;;;;;;5091784;28;20196;-74
2022/05/18 06:51:20;;;;;;;17.38;2.33;;;;;;;;;;5091893;28;20594;-75
2022/05/18 06:53:48;;;;;;;12.38;2.00;;;;;;;;;;5091809;28;20191;-74
2022/05/18 06:56:15;;;;;;;10.65;1.55;;;;;;;;;;5091866;28;20604;-73
2022/05/18 06:58:43;;;;;;;11.45;1.75;;;;;;;;;;5091755;28;20202;-74
2022/05/18 07:01:11;;;;;;;12.25;1.77;;;;;;;;;;5091905;28;20218;-74
2022/05/18 07:03:38;;;;;;;11.45;1.70;;;;;;;;;;5091505;28;20192;-73
2022/05/18 07:06:06;;;;;;;11.20;1.67;;;;;;;;;;5091817;28;20223;-73
2022/05/18 07:08:36;;;;;;;10.23;1.58;;;;;;;;;;5091662;28;20206;-74
2022/05/18 07:11:03;;;;;;;12.98;2.38;;;;;;;;;;5091654;28;20195;-74
2022/05/18 07:13:31;;;;;;;12.20;1.90;;;;;;;;;;5091432;28;20268;-74
2022/05/18 07:15:58;;;;;;;11.55;2.25;;;;;;;;;;5091798;28;20203;-74
2022/05/18 07:18:30;;;;;;;10.45;1.65;;;;;;;;;;5091442;28;20231;-74
2022/05/18 07:20:57;;;;;;;12.15;2.22;;;;;;;;;;5091526;28;20584;-74
2022/05/18 07:23:25;;;;;;;12.40;2.03;;;;;;;;;;5091610;28;20200;-74
2022/05/18 07:25:55;;;;;;;11.85;2.25;;;;;;;;;;5091397;28;20261;-74
2022/05/18 07:28:23;;;;;;;10.77;1.90;;;;;;;;;;5091483;28;20201;-74
2022/05/18 07:30:50;;;;;;;10.80;1.90;;;;;;;;;;5091447;28;20223;-74
2022/05/18 07:33:18;;;;;;;10.60;1.90;;;;;;;;;;5091368;28;20697;-74
2022/05/18 07:35:46;;;;;;;11.32;1.90;;;;;;;;;;5091423;28;20210;-74
2022/05/18 07:38:14;;;;;;;11.18;1.75;;;;;;;;;;5091587;28;20196;-74
2022/05/18 07:40:42;;;;;;;17.88;1.52;;;;;;;;;;5091473;28;20197;-74
2022/05/18 07:43:10;;;;;;;13.90;2.00;;;;;;;;;;5091426;28;20205;-74
2022/05/18 07:45:38;;;;;;;12.95;1.98;;;;;;;;;;5091263;28;20199;-74
2022/05/18 07:48:05;;;;;;;10.73;1.77;;;;;;;;;;5091194;28;20614;-74
2022/05/18 07:50:33;;;;;;;11.63;1.70;;;;;;;;;;5091231;28;20677;-74
2022/05/18 07:53:01;;;;;;;14.35;2.33;;;;;;;;;;5091592;28;20200;-73
2022/05/18 07:55:29;;;;;;;10.07;1.55;;;;;;;;;;5093998;28;20196;-74
2022/05/18 07:57:56;;;;;;;12.40;1.73;;;;;;;;;;5094830;28;20200;-74
2022/05/18 08:00:26;;;;;;;11.35;1.98;;;;;;;;;;5094968;28;20193;-74
2022/05/18 08:02:53;;;;;;;13.32;2.05;;;;;;;;;;5095229;28;20219;-74
2022/05/18 08:05:21;;;;;;;10.45;1.80;;;;;;;;;;5094572;28;20204;-74
2022/05/18 08:07:48;;;;;;;10.90;1.30;;;;;;;;;;5094750;28;20310;-73
2022/05/18 08:16:03;;;;;;;11.30;1.75;;;;;;;;;;5032362;28;20205;-74
2022/05/18 08:18:30;;;;;;;12.40;2.35;;;;;;;;;;5067516;28;20227;-74
2022/05/18 08:20:58;;;;;;;12.15;1.70;;;;;;;;;;5094542;28;20204;-74
2022/05/18 08:23:26;;;;;;;12.00;1.60;;;;;;;;;;5094063;28;20196;-74
2022/05/18 08:25:56;;;;;;;12.38;1.75;;;;;;;;;;5094315;28;20197;-74
2022/05/18 08:28:23;;;;;;;20.42;2.10;;;;;;;;;;5094257;28;20683;-74
2022/05/18 08:30:52;;;;;;;13.35;3.35;;;;;;;;;;5093879;28;20310;-74
2022/05/18 08:33:21;;;;;;;12.75;1.70;;;;;;;;;;5094007;28;20199;-74
2022/05/18 08:35:49;;;;;;;12.25;1.73;;;;;;;;;;5094162;28;20206;-74
2022/05/18 08:38:17;;;;;;;16.95;2.42;;;;;;;;;;5093804;28;20249;-74
2022/05/18 08:40:46;;;;;;;13.63;1.40;;;;;;;;;;5094304;28;20205;-74
2022/05/18 08:43:17;;;;;;;11.20;2.10;;;;;;;;;;5094141;28;20196;-75
2022/05/18 08:45:47;;;;;;;13.23;1.85;;;;;;;;;;5094483;28;20196;-74
2022/05/18 08:48:21;;;;;;;23.13;2.60;;;;;;;;;;5093846;28;20650;-74
2022/05/18 08:50:50;;;;;;;12.65;1.75;;;;;;;;;;5093944;28;20537;-74
2022/05/18 08:53:27;;;;;;;21.95;2.78;;;;;;;;;;5093609;28;20661;-74
2022/05/18 08:56:01;;;;;;;11.13;1.85;;;;;;;;;;5093831;28;20192;-74
2022/05/18 08:58:35;;;;;;;10.90;1.50;;;;;;;;;;5093769;28;20200;-74
2022/05/18 09:01:03;;;;;;;10.65;1.58;;;;;;;;;;5093694;28;20204;-75
2022/05/18 09:03:33;;;;;;;10.80;1.40;;;;;;;;;;5093640;28;20594;-74
2022/05/18 09:06:03;;;;;;;12.38;2.55;;;;;;;;;;5093136;28;20283;-74
2022/05/18 09:08:33;;;;;;;13.32;1.73;;;;;;;;;;5093473;28;20228;-74
2022/05/18 09:11:03;;;;;;;22.10;2.33;;;;;;;;;;5094035;28;20224;-74
2022/05/18 09:13:32;;;;;;;13.25;1.52;;;;;;;;;;5093119;28;20279;-74
2022/05/18 09:16:08;;;;;;;12.15;1.75;;;;;;;;;;5093675;28;20200;-74
2022/05/18 09:18:40;;;;;;;13.40;1.60;;;;;;;;;;5093789;28;20296;-74
2022/05/18 09:21:13;;;;;;;11.98;1.85;;;;;;;;;;5093602;28;20201;-75
2022/05/18 09:23:56;;;;;;;14.48;1.92;;;;;;;;;;5093549;28;20196;-74
2022/05/18 09:26:50;;;;;;;13.40;2.17;;;;;;;;;;5090935;28;20208;-74
2022/05/18 09:29:25;;;;;;;14.75;2.17;;;;;;;;;;5045920;28;20200;-74
2022/05/18 09:32:04;;;;;;;12.73;1.95;;;;;;;;;;5093133;28;20199;-74
2022/05/18 09:34:45;;;;;;;13.52;2.08;;;;;;;;;;5092976;28;20224;-75
2022/05/18 09:37:27;;;;;;;13.57;2.13;;;;;;;;;;5093014;28;20201;-74
2022/05/18 09:39:56;;;;;;;13.98;1.58;;;;;;;;;;5092909;28;20197;-74
2022/05/18 09:42:25;;;;;;;14.02;2.17;;;;;;;;;;5093050;28;20198;-74
2022/05/18 09:44:57;;;;;;;17.67;2.30;;;;;;;;;;5092714;28;20207;-74
2022/05/18 09:47:26;;;;;;;14.70;1.95;;;;;;;;;;5092754;28;20292;-74
2022/05/18 09:49:55;;;;;;;17.70;1.55;;;;;;;;;;5093023;28;20195;-74
2022/05/18 09:52:26;;;;;;;12.63;1.73;;;;;;;;;;5092678;28;20212;-74
2022/05/18 09:54:54;;;;;;;19.90;1.95;;;;;;;;;;5092656;28;20657;-74
2022/05/18 09:57:24;;;;;;;12.63;1.60;;;;;;;;;;5092306;28;20204;-75
2022/05/18 09:59:55;;;;;;;11.00;1.40;;;;;;;;;;5092540;28;20198;-74
2022/05/18 10:07:58;;;;;;;19.02;2.63;;;;;;;;;;5092420;28;20751;-75
2022/05/18 10:10:27;;;;;;;16.20;1.70;;;;;;;;;;5092334;28;20253;-75
2022/05/18 10:13:03;;;;;;;13.20;2.00;;;;;;;;;;5092292;28;20200;-74
2022/05/18 10:15:35;;;;;;;12.82;1.90;;;;;;;;;;5092247;28;20196;-74
2022/05/18 10:18:12;;;;;;;11.60;1.83;;;;;;;;;;5091757;28;20264;-74
2022/05/18 10:20:40;;;;;;;13.35;1.65;;;;;;;;;;5092594;28;20196;-74
2022/05/18 10:23:29;;;;;;;13.65;1.40;;;;;;;;;;5092496;28;20265;-74
2022/05/18 10:25:56;;;;;;;16.88;1.88;;;;;;;;;;5092344;28;20594;-74
2022/05/18 10:28:25;;;;;;;14.18;1.70;;;;;;;;;;5092054;28;20235;-75
2022/05/18 10:30:57;;;;;;;14.93;1.65;;;;;;;;;;5091698;28;20220;-74
2022/05/18 10:33:31;;;;;;;11.50;1.50;;;;;;;;;;5091829;28;20682;-75
2022/05/18 10:36:00;;;;;;;12.98;1.70;;;;;;;;;;5092037;28;20661;-74
2022/05/18 10:38:30;;;;;;;14.00;2.35;;;;;;;;;;5091987;28;20197;-74
2022/05/18 10:41:07;;;;;;;11.70;1.70;;;;;;;;;;5091842;28;20699;-74
2022/05/18 10:43:35;;;;;;;13.25;1.77;;;;;;;;;;5091940;28;20195;-74
2022/05/18 10:46:04;;;;;;;14.77;2.05;;;;;;;;;;5091889;28;20208;-74
2022/05/18 10:48:33;;;;;;;11.68;1.75;;;;;;;;;;5091756;28;20227;-74
2022/05/18 10:51:06;;;;;;;16.77;2.03;;;;;;;;;;5091885;28;20200;-74
2022/05/18 10:53:37;;;;;;;14.73;2.40;;;;;;;;;;5091626;28;20197;-74
2022/05/18 10:56:08;;;;;;;18.05;2.53;;;;;;;;;;5092363;28;20450;-75
2022/05/18 10:58:37;;;;;;;15.52;2.10;;;;;;;;;;5092173;28;20199;-74
2022/05/18 11:01:07;;;;;;;11.37;1.67;;;;;;;;;;5091870;28;20205;-74
2022/05/18 11:03:37;;;;;;;12.18;1.20;;;;;;;;;;5091612;28;20449;-75
2022/05/18 11:06:08;;;;;;;38.17;3.10;;;;;;;;;;5091673;28;20197;-74
2022/05/18 11:08:37;;;;;;;12.27;1.40;;;;;;;;;;5092187;28;20606;-75
2022/05/18 11:11:10;;;;;;;13.00;1.80;;;;;;;;;;5091688;28;20948;-74
2022/05/18 11:13:40;;;;;;;13.32;2.00;;;;;;;;;;5091722;28;20825;-74
2022/05/18 11:16:13;;;;;;;14.63;1.57;;;;;;;;;;5091974;28;20203;-75
2022/05/18 11:18:45;;;;;;;13.70;1.80;;;;;;;;;;5092196;28;20489;-75
2022/05/18 11:21:16;;;;;;;12.53;1.80;;;;;;;;;;5091896;28;20199;-75
2022/05/18 11:23:50;;;;;;;12.40;1.50;;;;;;;;;;5091533;28;20448;-74
2022/05/18 11:26:27;;;;;;;12.50;1.80;;;;;;;;;;5091629;28;20193;-74
2022/05/18 11:28:59;;;;;;;11.70;1.60;;;;;;;;;;5093373;28;20494;-75
2022/05/18 11:31:40;;;;;;;13.33;2.40;;;;;;;;;;5095128;28;20461;-74
2022/05/18 11:34:15;;;;;;;12.30;1.63;;;;;;;;;;5095347;28;20439;-75
2022/05/18 11:36:47;;;;;;;17.43;1.70;;;;;;;;;;5095543;28;20445;-75
2022/05/18 11:39:21;;;;;;;16.20;1.93;;;;;;;;;;5095012;28;20451;-75
2022/05/18 11:41:58;;;;;;;11.83;1.50;;;;;;;;;;5095253;28;20435;-74
2022/05/18 11:44:29;;;;;;;12.30;1.60;;;;;;;;;;5095270;28;20431;-74
2022/05/18 11:47:02;;;;;;;12.03;1.77;;;;;;;;;;5095274;28;20429;-75
2022/05/18 11:52:49;;;;;;;13.68;1.85;;;;;;;;;;5095227;28;20411;-74
2022/05/18 11:55:29;;;;;;;12.57;1.47;;;;;;;;;;5094840;28;20197;-75
2022/05/18 11:58:01;;;;;;;11.47;1.40;;;;;;;;;;5094855;28;20446;-74
2022/05/18 12:00:45;;;;;;;14.27;1.70;;;;;;;;;;5095263;28;20439;-74
2022/05/18 12:03:27;;;;;;;11.60;1.60;;;;;;;;;;5095161;28;20208;-75
2022/05/18 12:06:04;;;;;;;14.27;1.50;;;;;;;;;;5095126;28;20469;-74
2022/05/18 12:08:41;;;;;;;15.03;1.60;;;;;;;;;;5094688;28;20481;-75
2022/05/18 12:11:13;;;;;;;12.33;1.50;;;;;;;;;;5095134;28;20805;-75
2022/05/18 12:13:48;;;;;;;13.67;1.53;;;;;;;;;;5095255;28;20815;-74
2022/05/18 12:16:20;;;;;;;12.57;1.47;;;;;;;;;;5094652;28;20960;-74
2022/05/18 12:18:51;;;;;;;12.97;1.93;;;;;;;;;;5094441;28;20484;-75
2022/05/18 12:21:21;;;;;;;12.55;1.70;;;;;;;;;;5094656;28;20443;-75
2022/05/18 12:23:52;;;;;;;12.23;1.17;;;;;;;;;;5094393;28;20203;-74
2022/05/18 12:26:22;;;;;;;12.70;1.73;;;;;;;;;;5094312;28;20833;-75
2022/05/18 12:28:50;;;;;;;11.20;1.17;;;;;;;;;;5094217;28;20896;-74
2022/05/18 12:31:18;;;;;;;13.00;1.30;;;;;;;;;;5093558;28;20463;-75
2022/05/18 12:33:46;;;;;;;11.70;1.57;;;;;;;;;;5094194;28;20203;-75
2022/05/18 12:36:16;;;;;;;13.83;1.70;;;;;;;;;;5094765;28;20430;-74
2022/05/18 12:38:54;;;;;;;12.87;1.60;;;;;;;;;;5094534;28;20425;-74
2022/05/18 12:41:26;;;;;;;12.00;1.63;;;;;;;;;;5093169;28;20451;-75
2022/05/18 12:44:02;;;;;;;14.47;2.23;;;;;;;;;;5094172;28;20442;-75
2022/05/18 12:46:33;;;;;;;15.17;1.60;;;;;;;;;;5094011;28;20456;-75
2022/05/18 12:49:02;;;;;;;14.43;1.70;;;;;;;;;;5093897;28;20482;-74
2022/05/18 12:51:37;;;;;;;16.90;1.53;;;;;;;;;;5093826;28;20438;-75
2022/05/18 12:54:18;;;;;;;17.20;1.70;;;;;;;;;;5094100;28;21027;-75
2022/05/18 12:56:51;;;;;;;11.73;1.47;;;;;;;;;;5094000;28;20438;-75
2022/05/18 12:59:20;;;;;;;12.70;1.50;;;;;;;;;;5093649;28;20965;-75
2022/05/18 13:01:50;;;;;;;11.40;1.10;;;;;;;;;;5093846;28;20438;-75
2022/05/18 13:04:37;;;;;;;12.83;1.43;;;;;;;;;;5093914;28;20544;-75
2022/05/18 13:07:20;;;;;;;14.97;1.33;;;;;;;;;;5093532;28;20525;-74
2022/05/18 13:09:48;;;;;;;11.57;1.10;;;;;;;;;;5093479;28;21040;-75
2022/05/18 13:12:37;;;;;;;14.90;1.40;;;;;;;;;;5093491;28;20457;-75
2022/05/18 13:15:07;;;;;;;13.80;1.37;;;;;;;;;;5093479;28;20445;-75
2022/05/18 13:17:59;;;;;;;11.97;1.10;;;;;;;;;;5093190;28;20485;-75
2022/05/18 13:20:41;;;;;;;11.57;1.30;;;;;;;;;;5074174;28;20426;-75
2022/05/18 13:23:09;;;;;;;14.23;1.33;;;;;;;;;;5093228;28;20438;-75
2022/05/18 13:25:38;;;;;;;15.43;1.43;;;;;;;;;;5093093;28;20445;-75
2022/05/18 13:28:10;;;;;;;13.13;1.40;;;;;;;;;;5093038;28;20480;-75
2022/05/18 13:30:40;;;;;;;12.10;1.23;;;;;;;;;;5093103;28;20453;-75
2022/05/18 13:33:08;;;;;;;16.73;1.30;;;;;;;;;;5093009;28;20438;-74
2022/05/18 13:35:36;;;;;;;11.50;1.20;;;;;;;;;;5092822;28;20480;-75
2022/05/18 13:38:04;;;;;;;25.43;1.77;;;;;;;;;;5092813;28;20449;-75
2022/05/18 13:40:32;;;;;;;20.00;1.93;;;;;;;;;;5093288;28;20446;-74
2022/05/18 13:43:01;;;;;;;14.87;1.50;;;;;;;;;;5093219;28;20431;-75
2022/05/18 13:45:31;;;;;;;14.87;1.40;;;;;;;;;;5092746;28;20446;-75
2022/05/18 13:47:59;;;;;;;11.40;1.50;;;;;;;;;;5092750;28;20485;-74
2022/05/18 13:50:28;;;;;;;11.03;1.00;;;;;;;;;;5092611;28;20450;-75
2022/05/18 13:52:57;;;;;;;13.50;1.23;;;;;;;;;;5092611;28;20449;-75
2022/05/18 13:55:25;;;;;;;12.20;1.00;;;;;;;;;;5092428;28;20474;-75
2022/05/18 13:57:55;;;;;;;12.63;1.20;;;;;;;;;;5092932;28;20434;-74
2022/05/18 14:00:26;;;;;;;15.40;1.53;;;;;;;;;;5092538;28;20943;-74
2022/05/18 14:02:57;;;;;;;26.00;1.67;;;;;;;;;;5092515;28;20445;-75
2022/05/18 14:05:25;;;;;;;12.27;1.10;;;;;;;;;;5092198;28;20446;-75
2022/05/18 14:07:53;;;;;;;11.37;1.20;;;;;;;;;;5092315;28;20448;-75
2022/05/18 14:10:22;;;;;;;15.87;1.50;;;;;;;;;;5092369;28;20529;-75
2022/05/18 14:12:50;;;;;;;14.13;1.47;;;;;;;;;;5092464;28;20803;-75
2022/05/18 14:15:19;;;;;;;13.00;1.50;;;;;;;;;;5092058;28;20951;-75
2022/05/18 14:17:47;;;;;;;12.63;1.30;;;;;;;;;;5092177;28;20573;-75
2022/05/18 14:20:20;;;;;;;15.33;1.30;;;;;;;;;;5092484;28;20446;-75
2022/05/18 14:22:51;;;;;;;11.90;1.17;;;;;;;;;;5092185;28;20446;-75
2022/05/18 14:25:21;;;;;;;12.67;1.50;;;;;;;;;;5092058;28;20447;-75
2022/05/18 14:27:50;;;;;;;11.70;1.23;;;;;;;;;;5092216;28;20821;-75
2022/05/18 14:30:19;;;;;;;13.00;1.30;;;;;;;;;;5091779;28;20457;-75
2022/05/18 14:32:49;;;;;;;12.10;1.30;;;;;;;;;;5092467;28;20809;-75
2022/05/18 14:35:19;;;;;;;14.27;1.27;;;;;;;;;;5091938;28;20960;-75
2022/05/18 14:37:50;;;;;;;12.97;1.40;;;;;;;;;;5092058;28;20434;-75
2022/05/18 14:40:20;;;;;;;11.60;1.10;;;;;;;;;;5091995;28;20454;-75
2022/05/18 14:42:51;;;;;;;11.60;1.10;;;;;;;;;;5091919;28;20509;-75
2022/05/18 14:45:25;;;;;;;14.13;1.10;;;;;;;;;;5092065;28;20939;-75
2022/05/18 14:47:54;;;;;;;13.90;1.50;;;;;;;;;;5091988;28;20438;-75
2022/05/18 14:50:26;;;;;;;18.03;2.07;;;;;;;;;;5091812;28;20889;-75
2022/05/18 14:52:57;;;;;;;13.43;1.40;;;;;;;;;;5092302;28;20430;-75
2022/05/18 14:55:26;;;;;;;17.17;1.43;;;;;;;;;;5091718;28;20461;-75
2022/05/18 14:57:54;;;;;;;20.00;1.40;;;;;;;;;;5091775;28;20516;-74
2022/05/18 15:00:24;;;;;;;12.77;1.30;;;;;;;;;;5091945;28;20549;-75
2022/05/18 15:02:52;;;;;;;18.13;2.23;;;;;;;;;;5092132;28;20823;-75
2022/05/18 15:05:22;;;;;;;15.07;1.30;;;;;;;;;;5095859;28;20433;-75